Tiempo atmosférico en la estación meteorológica de Lliria, València/Valencia (180 m.)



Fecha
DESCASC
Temp. máxima en grados centígrados (hora)
DESCASC
Temp. mínima en grados centígrados (hora)
DESCASC
Temp. media en grados centígrados
DESCASC
Racha de viento máxima en m/sg (hora)
DESCASC
Velocidad máxima media en intervalos de 10 minutos(hora)
DESCASC
Precipitaciones diarias en mm
DESCASC
Precipitaciones de 00:00 a 06:00 en mm
DESCASC
Precipitaciones de 06:00 a 12:00 en mm
DESCASC
Precipitaciones de 12:00 a 18:00 en mm
DESCASC
Precipitaciones de 18:00 a 24:00 en mm
DESCASC
23-05-2020 30.8 (13:50) 15.3 (05:30) 23 8.06 (18:10) 5.28 (18:10) 0 0 0 0 0
22-05-2020 32.2 (15:10) 16.7 (06:40) 24.5 8.61 (17:10) 5 (17:10) 0 0 0 0 0
21-05-2020 32.2 (15:30) 15 (00:00) 23.6 9.17 (16:00) 5.28 (16:50) 0 0 0 0 0
20-05-2020 30.8 (14:20) 15.7 (00:00) 23.2 11.11 (15:10) 5.28 (15:10) 0 0 0 0 0
19-05-2020 31.4 (15:10) 13.4 (06:50) 22.4 9.72 (16:10) 6.11 (15:50) 0 0 0 0 0
18-05-2020 27.4 (15:00) 12.4 (00:00) 19.9 9.44 (15:10) 5.83 (17:10) 0 0 0 0 0
17-05-2020 25 (15:00) 11.4 (00:00) 18.2 8.61 (15:10) 5.83 (15:10) 5 0 0 0 5
16-05-2020 22 (13:20) 14 (00:00) 18 7.22 (12:50) 4.17 (12:50) 1 0 0 0.8 0.2
15-05-2020 21.5 (11:20) 9.7 (05:50) 15.6 8.61 (12:20) 5.56 (11:50) 0.6 0 0 0 0.6
14-05-2020 19 (18:50) 12.2 (00:00) 15.6 9.17 (12:40) 5.28 (19:00) 15.2 0 14.2 1 0
13-05-2020 24.6 (17:50) 12.4 (00:00) 18.5 12.22 (11:40) 6.11 (05:00) 0 0 0 0 0
12-05-2020 25.1 (14:40) 14.8 (23:20) 20 10.83 (15:40) 6.94 (15:50) 1 0 0 0.4 0.6
11-05-2020 26.2 (16:20) 13.8 (00:00) 20 13.61 (15:10) 8.33 (16:30) 0 0 0 0 0
10-05-2020 24.9 (16:30) 14.7 (00:00) 19.8 14.72 (18:20) 8.61 (18:00) 0.4 0 0.4 0 0
09-05-2020 24.4 (14:50) 15.6 (07:30) 20 7.22 (17:00) 4.72 (14:10) 0.2 0 0 0 0.2
08-05-2020 24.9 (14:10) 11.5 (00:00) 18.2 9.72 (13:20) 5.56 (13:20) 0.2 0 0 0.2 0
07-05-2020 27.1 (13:10) 13.5 (00:00) 20.3 9.72 (14:10) 5.28 (13:50) 0 0 0 0 0
06-05-2020 28.7 (14:00) 15.1 (00:00) 21.9 12.5 (15:10) 7.5 (16:00) 0 0 0 0 0
05-05-2020 30.9 (12:40) 13.7 (00:00) 22.3 7.78 (13:30) 5.56 (13:30) 0 0 0 0 0
04-05-2020 28.3 (16:20) 13 (00:00) 20.6 6.67 (16:10) 3.89 (17:20) 0 0 0 0 0
03-05-2020 28.9 (13:10) 15.3 (03:00) 22.1 9.17 (14:10) 5 (14:20) 0 0 0 0 0
02-05-2020 33.8 (18:00) 18.9 (07:30) 26.3 10 (17:00) 5.83 (16:50) 0 0 0 0 0
01-05-2020 29.9 (15:50) 13.7 (00:00) 21.8 18.33 (15:10) 9.17 (17:20) 0 0 0 0 0
30-04-2020 25.8 (16:00) 15.1 (23:50) 20.4 16.11 (13:50) 9.44 (13:20) 0 0 0 0 0
29-04-2020 25.9 (17:20) 8.4 (00:00) 17.1 11.67 (17:50) 6.94 (17:50) 0 0 0 0 0
28-04-2020 24.1 (17:10) 10 (06:30) 17.1 12.78 (16:10) 6.94 (12:10) 0 0 0 0 0

Gráficas

Temp. máximas Temp. mínimas Temp. medias Precipitaciones Rachas de viento máximas Velocidades máximas media en intervalos de 10 minutos

Datos horarios

Fecha y hora oficial Temperatura (ºC) Velocidad del viento (km/h) Dirección del viento Racha (km/h) Dirección de racha Precipitación (mm) Presión (hPa) Tendencia (hPa) Humedad (%)
2020-05-27 23:00:00 18.1 4 Sudeste 17 Sudeste 0 -- -- 82
2020-05-27 22:00:00 18.9 12 Sudeste 23 Sudeste 0 -- -- 79
2020-05-27 21:00:00 20.8 18 Sudeste 28 Sudeste 0 -- -- 70
2020-05-27 20:00:00 23.9 18 Sudeste 31 Sudeste 0 -- -- 51
2020-05-27 19:00:00 24.5 21 Sudeste 40 Este 0 -- -- 56
2020-05-27 18:00:00 26.5 25 Sudeste 41 Sudeste 0 -- -- 45
2020-05-27 17:00:00 28.2 20 Este 40 Sudeste 0 -- -- 35
2020-05-27 16:00:00 28.9 18 Este 35 Este 0 -- -- 36
2020-05-27 15:00:00 28.9 19 Este 36 Este 0 -- -- 36
2020-05-27 14:00:00 28.8 18 Este 40 Sudeste 0 -- -- 33
2020-05-27 13:00:00 29.2 17 Sudeste 39 Sudeste 0 -- -- 33
2020-05-27 12:00:00 28.2 15 Este 26 Nordeste 0 -- -- 34
2020-05-27 11:00:00 26.6 9 Sudeste 19 Sudeste 0 -- -- 39
2020-05-27 10:00:00 25 5 Sudeste 10 Noroeste 0 -- -- 41
2020-05-27 09:00:00 20.8 7 Noroeste 17 Noroeste 0 -- -- 57
2020-05-27 08:00:00 17.1 11 Noroeste 16 Noroeste 0 -- -- 69
2020-05-27 07:00:00 14.6 11 Noroeste 16 Noroeste 0 -- -- 81
2020-05-27 06:00:00 14.5 6 Noroeste 13 Noroeste 0 -- -- 82
2020-05-27 05:00:00 14.8 8 Noroeste 15 Noroeste 0 -- -- 82
2020-05-27 04:00:00 14.7 10 Noroeste 13 Noroeste 0 -- -- 85
2020-05-27 03:00:00 15.2 7 Noroeste 10 Noroeste 0 -- -- 83
2020-05-27 02:00:00 15.1 4 Noroeste 9 Noroeste 0 -- -- 85
2020-05-27 01:00:00 16.2 6 Noroeste 9 Noroeste 0 -- -- 83
2020-05-27 00:00:00 16 5 Noroeste 8 Noroeste 0 -- -- 85
2020-05-26 23:00:00 17.2 3 Noroeste 5 Noroeste 0 -- -- 81
2020-05-26 22:00:00 19.3 3 Noroeste 18 Sur 0 -- -- 71
2020-05-26 21:00:00 22.4 13 Sudeste 27 Sudeste 0 -- -- 59
2020-05-26 20:00:00 23.5 17 Sudeste 34 Sudeste 0 -- -- 55
2020-05-26 19:00:00 25.5 18 Sudeste 32 Sudeste 0 -- -- 47
2020-05-26 18:00:00 26.4 20 Sudeste 35 Sudeste 0 -- -- 45
2020-05-26 17:00:00 26.6 20 Sudeste 31 Sudeste 0 -- -- 45
2020-05-26 16:00:00 27.7 15 Este 30 Sudeste 0 -- -- 40
2020-05-26 15:00:00 27.4 9 Este 26 Sudeste 0 -- -- 44
2020-05-26 14:00:00 25.9 8 Sudeste 18 Sudeste 0 -- -- 52
2020-05-26 13:00:00 25.2 4 Sudeste 10 Este 0 -- -- 54
2020-05-26 12:00:00 22.1 3 Noroeste 12 Sudoeste 0 -- -- 65
2020-05-26 11:00:00 20.3 5 Sudoeste 10 Sudoeste 0 -- -- 70
2020-05-26 10:00:00 19.2 2 Sur 5 Oeste 0 -- -- 75
2020-05-26 09:00:00 17.5 4 Nordeste 10 Norte 0 -- -- 83
2020-05-26 08:00:00 16.5 4 Norte 5 Norte 0 -- -- 85
2020-05-26 07:00:00 15.9 0 Calma 4 Norte 0 -- -- 89
2020-05-26 06:00:00 15.2 3 Noroeste 4 Noroeste 0 -- -- 91
2020-05-26 05:00:00 15.2 3 Oeste 8 Nordeste 0 -- -- 89
2020-05-26 04:00:00 15 5 Noroeste 8 Oeste 0 -- -- 92
2020-05-26 03:00:00 15.3 6 Noroeste 9 Norte 0 -- -- 91
2020-05-26 02:00:00 16.6 3 Norte 10 Noroeste 0 -- -- 88
2020-05-26 01:00:00 16.6 8 Noroeste 12 Noroeste 0 -- -- 91
2020-05-26 00:00:00 17 7 Noroeste 9 Noroeste 0 -- -- 88
2020-05-25 23:00:00 18.3 5 Sur 14 Sur 0 -- -- 83
2020-05-25 22:00:00 18.8 6 Sudeste 21 Sudeste 0 -- -- 79
2020-05-25 21:00:00 20.2 13 Sudeste 28 Sudeste 0 -- -- 72
2020-05-25 20:00:00 22.3 16 Sudeste 21 Sudeste 0 -- -- 61
2020-05-25 19:00:00 24.7 9 Sudeste 17 Sudeste 0 -- -- 51
2020-05-25 18:00:00 24.1 8 Sur 14 Sur 0 -- -- 52
2020-05-25 17:00:00 23.8 7 Sur 24 Sudeste 0 -- -- 52
2020-05-25 16:00:00 24.4 9 Sur 24 Sur 0 -- -- 53
2020-05-25 15:00:00 23.6 4 Sudeste 16 Sur 0 -- -- 54
2020-05-25 14:00:00 25.2 6 Sudeste 24 Sudeste 0 -- -- 46
2020-05-25 13:00:00 26.2 8 Sur 20 Este 0 -- -- 44
2020-05-25 12:00:00 24.8 8 Sur 19 Sudeste 0 -- -- 45
2020-05-25 11:00:00 22.6 7 Sudeste 13 Sudeste 0 -- -- 56
2020-05-25 10:00:00 20.2 4 Sudeste 8 Este 0 -- -- 69
2020-05-25 09:00:00 18.7 2 Este 5 Este 0 -- -- 73
2020-05-25 08:00:00 16.3 3 Norte 7 Noroeste 0 -- -- 84
2020-05-25 07:00:00 14.5 6 Noroeste 12 Noroeste 0 -- -- 90
2020-05-25 06:00:00 14 4 Noroeste 8 Noroeste 0 -- -- 91
2020-05-25 05:00:00 14.1 5 Noroeste 9 Noroeste 0 -- -- 91
2020-05-25 04:00:00 14.9 4 Noroeste 8 Noroeste 0 -- -- 90
2020-05-25 03:00:00 15.1 4 Noroeste 6 Noroeste 0 -- -- 90
2020-05-25 02:00:00 16 2 Norte 10 Noroeste 0 -- -- 88
2020-05-25 01:00:00 15.7 6 Noroeste 8 Noroeste 0 -- -- 90
2020-05-25 00:00:00 16.7 3 Norte 4 Norte 0 -- -- 85
2020-05-24 23:00:00 18.3 0 Calma 5 Este 0 -- -- 80
2020-05-24 22:00:00 19 3 Este 15 Sudeste 0 -- -- 77
2020-05-24 21:00:00 19.9 9 Sudeste 22 Sudeste 0 -- -- 71
2020-05-24 20:00:00 21.2 14 Sudeste 21 Sudeste 0 -- -- 68
2020-05-24 19:00:00 23 15 Sudeste 27 Sudeste 0 -- -- 61
2020-05-24 18:00:00 24.2 13 Sudeste 24 Sudeste 0 -- -- 58
2020-05-24 17:00:00 24.7 14 Sudeste 28 Sudeste 0 -- -- 58
2020-05-24 16:00:00 24.3 19 Sudeste 30 Sudeste 0 -- -- 59
2020-05-24 15:00:00 25.5 19 Sudeste 32 Sudeste 0 -- -- 57
2020-05-24 14:00:00 25.3 17 Sudeste 29 Sudeste 0 -- -- 58
2020-05-24 13:00:00 25.5 17 Sudeste 28 Sudeste 0 -- -- 57
2020-05-24 12:00:00 24.8 9 Sudeste 19 Sudeste 0 -- -- 56
2020-05-24 11:00:00 23 3 Este 14 Sudeste 0 -- -- 62
2020-05-24 10:00:00 22.8 6 Sudeste 14 Sudeste 0 -- -- 61
2020-05-24 09:00:00 21 7 Sur 9 Sur 0 -- -- 70
2020-05-24 08:00:00 17.6 3 Noroeste 11 Noroeste 0 -- -- 83
2020-05-24 07:00:00 15.5 8 Noroeste 10 Noroeste 0 -- -- 90
2020-05-24 06:00:00 15.3 0 Calma 6 Oeste 0 -- -- 89
2020-05-24 05:00:00 16 4 Noroeste 10 Noroeste 0 -- -- 86
2020-05-24 04:00:00 15.9 6 Noroeste 14 Noroeste 0 -- -- 86
2020-05-24 03:00:00 16.2 5 Noroeste 9 Noroeste 0 -- -- 82
2020-05-24 02:00:00 17.4 5 Norte 6 Norte 0 -- -- 74
2020-05-24 01:00:00 18.1 0 Calma 9 Noroeste 0 -- -- 76
2020-05-24 00:00:00 18.4 8 Noroeste 10 Noroeste 0 -- -- 72
2020-05-23 23:00:00 19.9 4 Norte 10 Noroeste 0 -- -- 67
2020-05-23 22:00:00 20.8 3 Noroeste 10 Sudeste 0 -- -- 66
2020-05-23 21:00:00 24.4 10 Sudeste 22 Sudeste 0 -- -- 45
2020-05-23 20:00:00 26.2 13 Sudeste 26 Sudeste 0 -- -- 43
2020-05-23 19:00:00 26 17 Sudeste 29 Sudeste 0 -- -- 41
2020-05-23 18:00:00 28.3 17 Sudeste 27 Sudeste 0 -- -- 38
2020-05-23 17:00:00 29.6 17 Sudeste 27 Sudeste 0 -- -- 34
2020-05-23 16:00:00 30 13 Sudeste 27 Sudeste 0 -- -- 39
2020-05-23 15:00:00 30.2 11 Sudeste 24 Sudeste 0 -- -- 38
2020-05-23 14:00:00 30.5 11 Sudeste 22 Sudeste 0 -- -- 38
2020-05-23 13:00:00 30 8 Sudeste 17 Sudeste 0 -- -- 35
2020-05-23 12:00:00 28.9 10 Sudeste 19 Sudeste 0 -- -- 39
2020-05-23 11:00:00 27 4 Sudoeste 8 Sur 0 -- -- 45
2020-05-23 10:00:00 25.1 2 Este 6 Norte 0 -- -- 50
2020-05-23 09:00:00 21.9 0 Calma 10 Noroeste 0 -- -- 60
2020-05-23 08:00:00 18.3 8 Noroeste 12 Noroeste 0 -- -- 72
2020-05-23 07:00:00 16.2 4 Noroeste 12 Noroeste 0 -- -- 77
2020-05-23 06:00:00 15.9 9 Noroeste 12 Noroeste 0 -- -- 82
2020-05-23 05:00:00 15.6 4 Norte 8 Noroeste 0 -- -- 84
2020-05-23 04:00:00 15.9 3 Noroeste 10 Noroeste 0 -- -- 85
2020-05-23 03:00:00 16.9 3 Noroeste 11 Noroeste 0 -- -- 81
2020-05-23 02:00:00 17.4 7 Noroeste 11 Noroeste 0 -- -- 80
2020-05-23 01:00:00 17.5 9 Noroeste 12 Noroeste 0 -- -- 81
2020-05-23 00:00:00 18.2 7 Noroeste 10 Noroeste 0 -- -- 75
2020-05-22 23:00:00 19 5 Noroeste 8 Sudoeste 0 -- -- 72
2020-05-22 22:00:00 21.8 5 Sudoeste 9 Sudeste 0 -- -- 60
2020-05-22 21:00:00 24.9 3 Sur 16 Sudeste 0 -- -- 52
2020-05-22 20:00:00 26.2 12 Sudeste 22 Sudeste 0 -- -- 48
2020-05-22 19:00:00 27.8 13 Sudeste 26 Sudeste 0 -- -- 46
2020-05-22 18:00:00 29.1 16 Sudeste 31 Sudeste 0 -- -- 45
2020-05-22 17:00:00 30.3 18 Sudeste 28 Sudeste 0 -- -- 41
2020-05-22 16:00:00 31.9 15 Sudeste 26 Sudeste 0 -- -- 36
2020-05-22 15:00:00 32.1 12 Sudeste 24 Sudeste 0 -- -- 36
2020-05-22 14:00:00 31.5 10 Sudeste 21 Sur 0 -- -- 39
2020-05-22 13:00:00 30.6 8 Sudeste 17 Sudeste 0 -- -- 40
2020-05-22 12:00:00 28.9 6 Este 15 Este 0 -- -- 41
2020-05-22 11:00:00 27 5 Sudeste 12 Este 0 -- -- 44
2020-05-22 10:00:00 23.7 3 Este 9 Nordeste 0 -- -- 54
2020-05-22 09:00:00 21.6 2 Sudeste 8 Este 0 -- -- 59
2020-05-22 08:00:00 19.3 4 Norte 8 Nordeste 0 -- -- 64
2020-05-22 07:00:00 16.7 7 Noroeste 10 Noroeste 0 -- -- 76
2020-05-22 06:00:00 18.7 2 Nordeste 12 Noroeste 0 -- -- 66
2020-05-22 05:00:00 17.6 7 Noroeste 12 Oeste 0 -- -- 71
2020-05-22 04:00:00 18.1 2 Norte 14 Noroeste 0 -- -- 67
2020-05-22 03:00:00 18.4 10 Noroeste 14 Noroeste 0 -- -- 65
2020-05-22 02:00:00 18.5 10 Noroeste 16 Noroeste 0 -- -- 66
2020-05-22 01:00:00 19.2 11 Noroeste 15 Noroeste 0 -- -- 66
2020-05-22 00:00:00 19.8 7 Noroeste 13 Noroeste 0 -- -- 63
2020-05-21 23:00:00 19.3 5 Noroeste 9 Noroeste 0 -- -- 71
2020-05-21 22:00:00 20.8 2 Noroeste 5 Norte 0 -- -- 70
2020-05-21 21:00:00 25.4 0 Calma 10 Sudeste 0 -- -- 51
2020-05-21 20:00:00 27.3 6 Este 18 Sudeste 0 -- -- 43
2020-05-21 19:00:00 27.9 13 Sudeste 26 Sudeste 0 -- -- 41
2020-05-21 18:00:00 29 16 Sudeste 28 Sudeste 0 -- -- 35
2020-05-21 17:00:00 30.2 17 Sudeste 30 Este 0 -- -- 33
2020-05-21 16:00:00 31.5 18 Sudeste 33 Sudeste 0 -- -- 30
2020-05-21 15:00:00 32 13 Sudeste 25 Sudeste 0 -- -- 28
2020-05-21 14:00:00 31.3 11 Sudeste 20 Sudeste 0 -- -- 28
2020-05-21 13:00:00 30.4 7 Sur 18 Sudeste 0 -- -- 30
2020-05-21 12:00:00 29.4 9 Sudeste 17 Sudeste 0 -- -- 34
2020-05-21 11:00:00 27.5 6 Sudeste 10 Sudeste 0 -- -- 37
2020-05-21 10:00:00 24.8 4 Oeste 10 Sudoeste 0 -- -- 45
2020-05-21 09:00:00 21.3 4 Oeste 9 Noroeste 0 -- -- 56
2020-05-21 08:00:00 17.3 5 Noroeste 10 Norte 0 -- -- 69
2020-05-21 07:00:00 15.8 4 Norte 14 Noroeste 0 -- -- 71
2020-05-21 06:00:00 15.3 8 Noroeste 13 Noroeste 0 -- -- 76
2020-05-21 05:00:00 15.7 6 Noroeste 10 Noroeste 0 -- -- 74
2020-05-21 04:00:00 16.9 8 Noroeste 15 Noroeste 0 -- -- 68
2020-05-21 03:00:00 17.4 9 Noroeste 14 Noroeste 0 -- -- 67
2020-05-21 02:00:00 18.2 9 Noroeste 12 Noroeste 0 -- -- 63
2020-05-21 01:00:00 17.8 9 Noroeste 14 Noroeste 0 -- -- 68
2020-05-21 00:00:00 18.5 4 Noroeste 11 Noroeste 0 -- -- 68
2020-05-20 23:00:00 18 4 Noroeste 8 Noroeste 0 -- -- 75
2020-05-20 22:00:00 20.4 0 Calma 6 Este 0 -- -- 71
2020-05-20 21:00:00 24.5 3 Este 10 Sudeste 0 -- -- 48
2020-05-20 20:00:00 25.1 7 Sudeste 22 Este 0 -- -- 42
2020-05-20 19:00:00 27.7 14 Sudeste 24 Sudeste 0 -- -- 36
2020-05-20 18:00:00 28.5 16 Sudeste 29 Sudeste 0 -- -- 36
2020-05-20 17:00:00 29.1 19 Sudeste 31 Sudeste 0 -- -- 36
2020-05-20 16:00:00 29.5 18 Sudeste 40 Sudeste 0 -- -- 37
2020-05-20 15:00:00 29.9 18 Sudeste 32 Sudeste 0 -- -- 37
2020-05-20 14:00:00 30.3 12 Sudeste 22 Sudeste 0 -- -- 35
2020-05-20 13:00:00 29.9 10 Sudeste 20 Sudeste 0 -- -- 34
2020-05-20 12:00:00 28.8 7 Sur 15 Sudeste 0 -- -- 38
2020-05-20 11:00:00 27.5 5 Sudeste 9 Sudeste 0 -- -- 39
2020-05-20 10:00:00 25.1 0 Calma 7 Noroeste 0 -- -- 42
2020-05-20 09:00:00 21.4 8 Noroeste 13 Noroeste 0 -- -- 59
2020-05-20 08:00:00 17.8 9 Noroeste 16 Noroeste 0 -- -- 69
2020-05-20 07:00:00 15.7 7 Noroeste 18 Oeste 0 -- -- 74
2020-05-20 06:00:00 16 12 Noroeste 18 Noroeste 0 -- -- 73
2020-05-20 05:00:00 16.2 9 Noroeste 15 Noroeste 0 -- -- 72
2020-05-20 04:00:00 16.9 5 Noroeste 14 Noroeste 0 -- -- 70
2020-05-20 03:00:00 16.9 13 Noroeste 18 Noroeste 0 -- -- 71
2020-05-20 02:00:00 16.5 8 Noroeste 13 Noroeste 0 -- -- 77
2020-05-20 01:00:00 17.7 5 Noroeste 7 Norte 0 -- -- 76
2020-05-20 00:00:00 18 7 Noroeste 14 Noroeste 0 -- -- 79
2020-05-19 23:00:00 18.7 8 Noroeste 12 Noroeste 0 -- -- 79
2020-05-19 22:00:00 20.8 7 Norte 13 Norte 0 -- -- 68
2020-05-19 21:00:00 23 3 Sudeste 6 Sudeste 0 -- -- 65
2020-05-19 20:00:00 25 3 Sudeste 12 Sudeste 0 -- -- 54
2020-05-19 19:00:00 27 10 Sur 21 Sudeste 0 -- -- 44
2020-05-19 18:00:00 27.2 14 Sudeste 25 Sudeste 0 -- -- 43
2020-05-19 17:00:00 28.1 18 Sudeste 35 Sudeste 0 -- -- 44
2020-05-19 16:00:00 29.2 20 Sudeste 33 Este 0 -- -- 41
2020-05-19 15:00:00 31.2 10 Sudeste 20 Sur 0 -- -- 33
2020-05-19 14:00:00 30.7 9 Sudeste 23 Sudoeste 0 -- -- 32
2020-05-19 13:00:00 29.7 6 Noroeste 23 Oeste 0 -- -- 33
2020-05-19 12:00:00 28.3 12 Oeste 22 Sudoeste 0 -- -- 37
2020-05-19 11:00:00 26 5 Oeste 13 Sudoeste 0 -- -- 42
2020-05-19 10:00:00 23.1 7 Oeste 13 Oeste 0 -- -- 52
2020-05-19 09:00:00 20.4 0 Calma 10 Noroeste 0 -- -- 61
2020-05-19 08:00:00 16.3 6 Noroeste 11 Noroeste 0 -- -- 77
2020-05-19 07:00:00 13.7 6 Noroeste 10 Noroeste 0 -- -- 87
2020-05-19 06:00:00 14.1 4 Noroeste 9 Noroeste 0 -- -- 85
2020-05-19 05:00:00 14.4 9 Noroeste 15 Noroeste 0 -- -- 85
2020-05-19 04:00:00 14.6 7 Noroeste 13 Norte 0 -- -- 85
2020-05-19 03:00:00 14.4 5 Noroeste 9 Noroeste 0 -- -- 88
2020-05-19 02:00:00 15 4 Norte 8 Noroeste 0 -- -- 87
2020-05-19 01:00:00 15.1 6 Noroeste 14 Noroeste 0 -- -- 87
2020-05-19 00:00:00 15.8 10 Noroeste 14 Noroeste 0 -- -- 88
2020-05-18 23:00:00 16.7 4 Norte 9 Norte 0 -- -- 84
2020-05-18 22:00:00 18 0 Calma 6 Sudeste 0 -- -- 80
2020-05-18 21:00:00 21 3 Sudeste 17 Sur 0 -- -- 63
2020-05-18 20:00:00 22 9 Sur 24 Sudeste 0 -- -- 59
2020-05-18 19:00:00 23 17 Sudeste 26 Sudeste 0 -- -- 56
2020-05-18 18:00:00 24.4 17 Sudeste 28 Sudeste 0 -- -- 53
2020-05-18 17:00:00 25.6 21 Sudeste 32 Este 0 -- -- 51
2020-05-18 16:00:00 26.8 16 Sudeste 34 Sudeste 0 -- -- 46
2020-05-18 15:00:00 27.4 12 Sudeste 22 Sudeste 0 -- -- 41
2020-05-18 14:00:00 26.8 9 Sur 23 Sudeste 0 -- -- 39
2020-05-18 13:00:00 25.9 10 Sur 23 Sur 0 -- -- 42
2020-05-18 12:00:00 25 7 Sur 16 Sudoeste 0 -- -- 43
2020-05-18 11:00:00 23.3 3 Sur 13 Noroeste 0 -- -- 47
2020-05-18 10:00:00 20.3 8 Noroeste 17 Oeste 0 -- -- 63
2020-05-18 09:00:00 17.1 10 Noroeste 17 Oeste 0 -- -- 75
2020-05-18 08:00:00 14.1 9 Noroeste 16 Noroeste 0 -- -- 90
2020-05-18 07:00:00 12.4 10 Noroeste 16 Noroeste 0 -- -- 91
2020-05-18 06:00:00 12.6 10 Noroeste 14 Noroeste 0 -- -- 91
2020-05-18 05:00:00 12.9 5 Noroeste 17 Noroeste 0 -- -- 92
2020-05-18 04:00:00 12.9 9 Noroeste 12 Noroeste 0 -- -- 93
2020-05-18 03:00:00 13 3 Noroeste 8 Oeste 0 -- -- 93
2020-05-18 02:00:00 13.6 0 Calma 9 Noroeste 0 -- -- 92
2020-05-18 01:00:00 14.1 7 Noroeste 9 Noroeste 0 -- -- 93
2020-05-18 00:00:00 15.3 3 Norte 6 Noroeste 0 -- -- 92
2020-05-17 23:00:00 15.6 0 Calma 5 Norte 0 -- -- 93
2020-05-17 22:00:00 16.3 0 Calma 4 Nordeste 0 -- -- 93
2020-05-17 21:00:00 16.4 5 Noroeste 10 Norte 0 -- -- 91
2020-05-17 20:00:00 16.2 8 Norte 23 Noroeste 4 -- -- 88
2020-05-17 19:00:00 17.1 17 Norte 30 Noroeste 1 -- -- 83
2020-05-17 18:00:00 23.3 13 Sudeste 26 Este 0 -- -- 49
2020-05-17 17:00:00 24.4 12 Sudeste 23 Sudeste 0 -- -- 46
2020-05-17 16:00:00 24 12 Sudeste 31 Sudeste 0 -- -- 47
2020-05-17 15:00:00 25 12 Sudeste 25 Sudeste 0 -- -- 43
2020-05-17 14:00:00 24 6 Sudeste 18 Sudeste 0 -- -- 42
2020-05-17 13:00:00 23 7 Sur 13 Sudeste 0 -- -- 44
2020-05-17 12:00:00 21.9 6 Sudeste 14 Sudeste 0 -- -- 45
2020-05-17 11:00:00 21 5 Sudeste 11 Sudeste 0 -- -- 49
2020-05-17 10:00:00 19 2 Noroeste 9 Oeste 0 -- -- 56
2020-05-17 09:00:00 16.5 5 Sudoeste 9 Oeste 0 -- -- 66
2020-05-17 08:00:00 13.2 5 Noroeste 12 Noroeste 0 -- -- 80
2020-05-17 07:00:00 11.4 7 Noroeste 10 Noroeste 0 -- -- 91
2020-05-17 06:00:00 12.2 7 Norte 12 Noroeste 0 -- -- 89
2020-05-17 05:00:00 13.3 7 Noroeste 12 Noroeste 0 -- -- 85
2020-05-17 04:00:00 13.9 8 Oeste 13 Oeste 0 -- -- 89
2020-05-17 03:00:00 14.5 5 Noroeste 14 Oeste 0 -- -- 88
2020-05-17 02:00:00 14.5 3 Noroeste 10 Noroeste 0 -- -- 92
2020-05-17 01:00:00 14.7 7 Noroeste 10 Noroeste 0 -- -- 92
2020-05-17 00:00:00 15 7 Noroeste 9 Noroeste 0 -- -- 92
2020-05-16 23:00:00 15.5 4 Noroeste 8 Noroeste 0 -- -- 91
2020-05-16 22:00:00 16.1 0 Calma 10 Norte 0 -- -- 88
2020-05-16 21:00:00 17 5 Nordeste 6 Nordeste 0.2 -- -- 86
2020-05-16 20:00:00 18.6 3 Sur 9 Sur 0 -- -- 70
2020-05-16 19:00:00 19.2 2 Sudoeste 9 Norte 0 -- -- 63
2020-05-16 18:00:00 17.3 6 Nordeste 10 Este 0 -- -- 74
2020-05-16 17:00:00 16.6 3 Nordeste 11 Este 0 -- -- 75
2020-05-16 16:00:00 15.7 7 Norte 14 Norte 0.8 -- -- 87
2020-05-16 15:00:00 16.4 10 Norte 22 Noroeste 0 -- -- 71
2020-05-16 14:00:00 20.7 13 Sur 24 Sudeste 0 -- -- 58
2020-05-16 13:00:00 20.9 14 Sudeste 26 Sudeste 0 -- -- 59
2020-05-16 12:00:00 21 8 Sur 15 Sudeste 0 -- -- 56
2020-05-16 11:00:00 19.3 8 Nordeste 16 Este 0 -- -- 59
2020-05-16 10:00:00 19.2 8 Nordeste 16 Nordeste 0 -- -- 59
2020-05-16 09:00:00 16.7 4 Noroeste 10 Noroeste 0 -- -- 78
2020-05-16 08:00:00 14.3 7 Noroeste 10 Noroeste 0 -- -- 90
2020-05-16 07:00:00 14.1 6 Noroeste 11 Noroeste 0 -- -- 90
2020-05-16 06:00:00 14.4 3 Noroeste 10 Noroeste 0 -- -- 89
2020-05-16 05:00:00 14.5 5 Noroeste 8 Noroeste 0 -- -- 91
2020-05-16 04:00:00 14.4 6 Noroeste 11 Noroeste 0 -- -- 92
2020-05-16 03:00:00 14.2 0 Calma 8 Noroeste 0 -- -- 93
2020-05-16 02:00:00 14.2 6 Noroeste 9 Noroeste 0 -- -- 92
2020-05-16 01:00:00 14.5 2 Noroeste 8 Sudeste 0 -- -- 92
2020-05-16 00:00:00 14.7 0 Calma 6 Norte 0 -- -- 89
2020-05-15 23:00:00 15.2 3 Noroeste 15 Noroeste 0 -- -- 86
2020-05-15 22:00:00 15.5 8 Noroeste 12 Noroeste 0.2 -- -- 91
2020-05-15 21:00:00 16.1 3 Sudeste 9 Sudeste 0.2 -- -- 89
2020-05-15 20:00:00 16.9 4 Sur 8 Sur 0 -- -- 82
2020-05-15 19:00:00 17 4 Sur 18 Sudeste 0.2 -- -- 80
2020-05-15 18:00:00 17.8 9 Sudeste 19 Sudeste 0 -- -- 76
2020-05-15 17:00:00 19.3 12 Sur 22 Sudeste 0 -- -- 64
2020-05-15 16:00:00 19.2 15 Sudeste 26 Sudeste 0 -- -- 66
2020-05-15 15:00:00 19.1 13 Sudeste 25 Sudeste 0 -- -- 63
2020-05-15 14:00:00 18.3 13 Sudeste 20 Sur 0 -- -- 65
2020-05-15 13:00:00 18.3 8 Sudeste 31 Sudeste 0 -- -- 63
2020-05-15 12:00:00 19.2 18 Sudeste 29 Sudeste 0 -- -- 56
2020-05-15 11:00:00 21.1 12 Sudeste 21 Sudeste 0 -- -- 53
2020-05-15 10:00:00 18.9 0 Calma 8 Noroeste 0 -- -- 56
2020-05-15 09:00:00 16.1 3 Oeste 9 Noroeste 0 -- -- 66
2020-05-15 08:00:00 12.5 0 Calma 7 Noroeste 0 -- -- 82
2020-05-15 07:00:00 10.5 5 Norte 12 Norte 0 -- -- 87
2020-05-15 06:00:00 9.9 5 Nordeste 9 Norte 0 -- -- 92
2020-05-15 05:00:00 10.9 3 Sudeste 11 Noroeste 0 -- -- 85
2020-05-15 04:00:00 10.9 3 Este 7 Nordeste 0 -- -- 88
2020-05-15 03:00:00 11.2 2 Sudeste 12 Noroeste 0 -- -- 87
2020-05-15 02:00:00 11.8 4 Norte 7 Norte 0 -- -- 87
2020-05-15 01:00:00 12.2 4 Norte 6 Norte 0 -- -- 88
2020-05-15 00:00:00 13 3 Nordeste 9 Noroeste 0 -- -- 85
2020-05-14 23:00:00 13.9 8 Noroeste 10 Noroeste 0 -- -- 76
2020-05-14 22:00:00 15.5 7 Noroeste 12 Oeste 0 -- -- 67
2020-05-14 21:00:00 16.9 7 Oeste 23 Oeste 0 -- -- 61
2020-05-14 20:00:00 18 11 Oeste 28 Oeste 0 -- -- 57
2020-05-14 19:00:00 18.9 19 Noroeste 31 Noroeste 0 -- -- 52
2020-05-14 18:00:00 18.2 11 Noroeste 23 Oeste 0 -- -- 59
2020-05-14 17:00:00 17.1 13 Oeste 27 Oeste 0 -- -- 64
2020-05-14 16:00:00 17 11 Oeste 28 Noroeste 0 -- -- 64
2020-05-14 15:00:00 15.8 14 Oeste 33 Oeste 0 -- -- 69
2020-05-14 14:00:00 14.8 17 Oeste 32 Oeste 0.2 -- -- 78
2020-05-14 13:00:00 13.6 18 Noroeste 33 Oeste 0.8 -- -- 85
2020-05-14 12:00:00 12.8 6 Oeste 15 Noroeste 5.4 -- -- 93
2020-05-14 11:00:00 12.2 4 Sudeste 22 Noroeste 6.6 -- -- 92
2020-05-14 10:00:00 13.6 10 Oeste 15 Oeste 1.6 -- -- 92
2020-05-14 09:00:00 13.6 5 Noroeste 12 Oeste 0.6 -- -- 89
2020-05-14 08:00:00 13.9 10 Noroeste 13 Noroeste 0 -- -- 80
2020-05-14 07:00:00 13.8 0 Calma 4 Noroeste 0 -- -- 83
2020-05-14 06:00:00 13.5 4 Noroeste 7 Noroeste 0 -- -- 81
2020-05-14 05:00:00 13.1 3 Noroeste 10 Noroeste 0 -- -- 83
2020-05-14 04:00:00 13.4 7 Noroeste 12 Noroeste 0 -- -- 81
2020-05-14 03:00:00 16.1 7 Norte 14 Nordeste 0 -- -- 70
2020-05-14 02:00:00 16.4 8 Norte 18 Norte 0 -- -- 70
2020-05-14 01:00:00 16.2 9 Norte 16 Norte 0 -- -- 71
2020-05-14 00:00:00 16.1 9 Nordeste 13 Nordeste 0 -- -- 68
2020-05-13 23:00:00 15.1 7 Noroeste 11 Norte 0 -- -- 72
2020-05-13 22:00:00 17.4 8 Norte 12 Norte 0 -- -- 62
2020-05-13 21:00:00 21.3 5 Sudoeste 19 Sudoeste 0 -- -- 48
2020-05-13 20:00:00 23.3 16 Sudoeste 28 Sudoeste 0 -- -- 40
2020-05-13 19:00:00 23.9 17 Sudoeste 31 Oeste 0 -- -- 38
2020-05-13 18:00:00 24.5 18 Oeste 37 Oeste 0 -- -- 36
2020-05-13 17:00:00 24.2 21 Oeste 39 Sudoeste 0 -- -- 39
2020-05-13 16:00:00 23.5 15 Oeste 37 Oeste 0 -- -- 41
2020-05-13 15:00:00 22.2 14 Oeste 32 Oeste 0 -- -- 45
2020-05-13 14:00:00 22.9 16 Oeste 30 Oeste 0 -- -- 42
2020-05-13 13:00:00 21.6 20 Oeste 34 Noroeste 0 -- -- 45
2020-05-13 12:00:00 21.3 18 Oeste 44 Oeste 0 -- -- 45
2020-05-13 11:00:00 20.1 18 Oeste 38 Oeste 0 -- -- 48
2020-05-13 10:00:00 18.5 17 Oeste 35 Oeste 0 -- -- 54
2020-05-13 09:00:00 16.5 17 Oeste 32 Oeste 0 -- -- 61
2020-05-13 08:00:00 14.7 14 Oeste 33 Oeste 0 -- -- 69
2020-05-13 07:00:00 13.6 18 Noroeste 27 Oeste 0 -- -- 71
2020-05-13 06:00:00 13.5 14 Noroeste 26 Oeste 0 -- -- 72
2020-05-13 05:00:00 13.9 22 Oeste 32 Oeste 0 -- -- 72
2020-05-13 04:00:00 12.4 5 Noroeste 13 Oeste 0 -- -- 81
2020-05-13 03:00:00 13.1 6 Noroeste 14 Oeste 0 -- -- 81
2020-05-13 02:00:00 14.1 8 Oeste 14 Oeste 0 -- -- 80
2020-05-13 01:00:00 15 7 Noroeste 18 Noroeste 0 -- -- 75
2020-05-13 00:00:00 14.9 9 Noroeste 22 Noroeste 0 -- -- 80
2020-05-12 23:00:00 15.1 10 Noroeste 24 Oeste 0 -- -- 81
2020-05-12 22:00:00 16.3 5 Oeste 8 Noroeste 0 -- -- 92
2020-05-12 21:00:00 16.8 0 Calma 10 Sudeste 0.2 -- -- 89
2020-05-12 20:00:00 17.3 5 Sur 10 Sudeste 0 -- -- 84
2020-05-12 19:00:00 18.1 7 Sudeste 12 Sudeste 0.4 -- -- 79
2020-05-12 18:00:00 19.2 3 Sur 22 Este 0.4 -- -- 72
2020-05-12 17:00:00 20.1 9 Este 25 Este 0 -- -- 56
2020-05-12 16:00:00 20.9 18 Sudeste 39 Sudeste 0 -- -- 53
2020-05-12 15:00:00 23.9 18 Sudeste 30 Sudeste 0 -- -- 47
2020-05-12 14:00:00 23.6 15 Este 33 Sudeste 0 -- -- 48
2020-05-12 13:00:00 21 19 Sudeste 28 Sudeste 0 -- -- 56
2020-05-12 12:00:00 22.3 9 Sudeste 19 Sudeste 0 -- -- 49
2020-05-12 11:00:00 21.2 9 Sudeste 15 Sudeste 0 -- -- 53
2020-05-12 10:00:00 17.9 9 Noroeste 18 Noroeste 0 -- -- 64
2020-05-12 09:00:00 16.1 7 Oeste 12 Norte 0 -- -- 69
2020-05-12 08:00:00 15.3 7 Norte 11 Norte 0 -- -- 71
2020-05-12 07:00:00 15.3 3 Oeste 16 Noroeste 0 -- -- 72
2020-05-12 06:00:00 16.4 10 Noroeste 26 Oeste 0 -- -- 65
2020-05-12 05:00:00 16.8 11 Oeste 18 Norte 0 -- -- 65
2020-05-12 04:00:00 17 9 Noroeste 20 Noroeste 0 -- -- 64
2020-05-12 03:00:00 17.2 10 Noroeste 21 Oeste 0 -- -- 64
2020-05-12 02:00:00 17 8 Noroeste 16 Noroeste 0 -- -- 65
2020-05-12 01:00:00 17.7 3 Sudoeste 19 Oeste 0 -- -- 63
2020-05-12 00:00:00 17.4 10 Noroeste 15 Noroeste 0 -- -- 64
2020-05-11 23:00:00 18.6 8 Oeste 21 Oeste 0 -- -- 59
2020-05-11 22:00:00 19.5 11 Oeste 23 Noroeste 0 -- -- 56
2020-05-11 21:00:00 21 19 Oeste 38 Sudoeste 0 -- -- 49
2020-05-11 20:00:00 23.1 21 Sudoeste 40 Oeste 0 -- -- 45
2020-05-11 19:00:00 24.3 26 Oeste 47 Sudoeste 0 -- -- 38
2020-05-11 18:00:00 25.4 28 Oeste 49 Oeste 0 -- -- 36
2020-05-11 17:00:00 25.8 24 Oeste 44 Noroeste 0 -- -- 36
2020-05-11 16:00:00 24.6 22 Oeste 49 Oeste 0 -- -- 37
2020-05-11 15:00:00 25.7 28 Oeste 46 Oeste 0 -- -- 36
2020-05-11 14:00:00 24.5 28 Oeste 49 Oeste 0 -- -- 36
2020-05-11 13:00:00 23.1 27 Oeste 46 Oeste 0 -- -- 43
2020-05-11 12:00:00 22.3 26 Oeste 46 Oeste 0 -- -- 45
2020-05-11 11:00:00 21.7 25 Oeste 45 Oeste 0 -- -- 45
2020-05-11 10:00:00 20.1 20 Oeste 44 Noroeste 0 -- -- 50
2020-05-11 09:00:00 18.3 21 Oeste 35 Oeste 0 -- -- 55
2020-05-11 08:00:00 16.7 19 Noroeste 39 Oeste 0 -- -- 59
2020-05-11 07:00:00 15 8 Oeste 19 Sudoeste 0 -- -- 65
2020-05-11 06:00:00 13.9 5 Sudoeste 8 Sudoeste 0 -- -- 73
2020-05-11 05:00:00 14.8 7 Oeste 20 Oeste 0 -- -- 65
2020-05-11 04:00:00 15.3 15 Oeste 22 Oeste 0 -- -- 61
2020-05-11 03:00:00 14.3 9 Noroeste 14 Oeste 0 -- -- 65
2020-05-11 02:00:00 15.2 5 Noroeste 22 Oeste 0 -- -- 61
2020-05-11 01:00:00 16.5 6 Oeste 22 Oeste 0 -- -- 57
2020-05-11 00:00:00 18 17 Oeste 31 Noroeste 0 -- -- 51
2020-05-10 23:00:00 18.1 15 Oeste 29 Oeste 0 -- -- 52
2020-05-10 22:00:00 18.5 14 Oeste 39 Oeste 0 -- -- 50
2020-05-10 21:00:00 19.9 16 Oeste 39 Oeste 0 -- -- 45
2020-05-10 20:00:00 22.1 23 Oeste 44 Oeste 0 -- -- 40
2020-05-10 19:00:00 22.8 26 Oeste 53 Oeste 0 -- -- 37
2020-05-10 18:00:00 23.2 31 Sudoeste 51 Sudoeste 0 -- -- 37
2020-05-10 17:00:00 24.5 24 Oeste 47 Oeste 0 -- -- 33
2020-05-10 16:00:00 24.7 26 Oeste 45 Noroeste 0 -- -- 33
2020-05-10 15:00:00 24 30 Oeste 48 Oeste 0 -- -- 34
2020-05-10 14:00:00 23.1 24 Oeste 49 Oeste 0 -- -- 39
2020-05-10 13:00:00 20.8 23 Oeste 44 Oeste 0 -- -- 46
2020-05-10 12:00:00 20.6 23 Noroeste 44 Noroeste 0 -- -- 52
2020-05-10 11:00:00 18.1 13 Oeste 25 Oeste 0.2 -- -- 66
2020-05-10 10:00:00 16.5 3 Noroeste 19 Oeste 0 -- -- 74
2020-05-10 09:00:00 16.6 8 Oeste 16 Oeste 0 -- -- 80
2020-05-10 08:00:00 15.5 3 Noroeste 9 Norte 0.2 -- -- 94
2020-05-10 07:00:00 15 5 Norte 10 Nordeste 0 -- -- 95
2020-05-10 06:00:00 14.8 3 Norte 6 Este 0 -- -- 95
2020-05-10 05:00:00 15.3 6 Noroeste 10 Noroeste 0 -- -- 94
2020-05-10 04:00:00 16.5 4 Noroeste 8 Noroeste 0 -- -- 94
2020-05-10 03:00:00 17.2 0 Calma 3 Sudeste 0 -- -- 93
2020-05-10 02:00:00 17.3 3 Sudeste 6 Sudoeste 0 -- -- 93
2020-05-10 01:00:00 17.3 2 Noroeste 9 Este 0 -- -- 92
2020-05-10 00:00:00 17.5 5 Oeste 7 Sudoeste 0 -- -- 92
2020-05-09 23:00:00 17.9 0 Calma 8 Sudeste 0 -- -- 91
2020-05-09 22:00:00 18 0 Calma 7 Noroeste 0 -- -- 89
2020-05-09 21:00:00 18.2 4 Este 13 Sudeste 0.2 -- -- 88
2020-05-09 20:00:00 18.8 12 Sudeste 22 Este 0 -- -- 78
2020-05-09 19:00:00 19.2 14 Sudeste 22 Sudeste 0 -- -- 74
2020-05-09 18:00:00 20.6 15 Sudeste 25 Sudeste 0 -- -- 71
2020-05-09 17:00:00 22.4 15 Sudeste 26 Sudeste 0 -- -- 67
2020-05-09 16:00:00 24.4 14 Sudeste 24 Sur 0 -- -- 58
2020-05-09 15:00:00 24.3 12 Sudeste 25 Sudeste 0 -- -- 59
2020-05-09 14:00:00 23.1 13 Sudeste 24 Sudeste 0 -- -- 62
2020-05-09 13:00:00 22.8 10 Sudeste 18 Sudeste 0 -- -- 64
2020-05-09 12:00:00 22.3 5 Este 16 Sudeste 0 -- -- 63
2020-05-09 11:00:00 21.3 8 Sudeste 19 Sudeste 0 -- -- 67
2020-05-09 10:00:00 20.1 6 Este 12 Sudeste 0 -- -- 69
2020-05-09 09:00:00 18.3 7 Sudeste 10 Sudeste 0 -- -- 78
2020-05-09 08:00:00 16.2 3 Sudoeste 12 Noroeste 0 -- -- 86
2020-05-09 07:00:00 16.2 0 Calma 11 Norte 0 -- -- 87
2020-05-09 06:00:00 16.5 6 Noroeste 12 Norte 0 -- -- 88
2020-05-09 05:00:00 16 5 Norte 8 Sudoeste 0 -- -- 91
2020-05-09 04:00:00 16.4 8 Sudoeste 12 Sur 0 -- -- 91
2020-05-09 03:00:00 17.3 2 Norte 6 Noroeste 0 -- -- 89
2020-05-09 02:00:00 17.4 0 Calma 7 Sudoeste 0 -- -- 89
2020-05-09 01:00:00 17.2 4 Sudoeste 10 Noroeste 0 -- -- 90
2020-05-09 00:00:00 15.8 4 Noroeste 7 Noroeste 0 -- -- 91
2020-05-08 23:00:00 16.7 0 Calma 6 Este 0 -- -- 86
2020-05-08 22:00:00 17.5 2 Sudeste 4 Sudeste 0 -- -- 81
2020-05-08 21:00:00 19.9 0 Calma 12 Sudeste 0 -- -- 72
2020-05-08 20:00:00 21.4 9 Sudeste 21 Sudeste 0 -- -- 64
2020-05-08 19:00:00 22.5 11 Sudeste 23 Sudeste 0 -- -- 62
2020-05-08 18:00:00 23.5 16 Sur 30 Sudeste 0 -- -- 61
2020-05-08 17:00:00 23.6 15 Sudeste 27 Sur 0 -- -- 60
2020-05-08 16:00:00 23.2 14 Sudeste 24 Sudeste 0 -- -- 64
2020-05-08 15:00:00 23 18 Sudeste 29 Sudeste 0.2 -- -- 66
2020-05-08 14:00:00 24.2 9 Sudeste 35 Sudoeste 0 -- -- 52
2020-05-08 13:00:00 24.2 10 Sudeste 25 Sudeste 0 -- -- 52
2020-05-08 12:00:00 22.7 13 Sur 22 Sudeste 0 -- -- 55
2020-05-08 11:00:00 22 7 Sudeste 18 Sur 0 -- -- 55
2020-05-08 10:00:00 20.1 5 Oeste 10 Sur 0 -- -- 62
2020-05-08 09:00:00 17.8 4 Noroeste 10 Noroeste 0 -- -- 70
2020-05-08 08:00:00 14.3 9 Noroeste 17 Nordeste 0 -- -- 83
2020-05-08 07:00:00 12.3 9 Noroeste 14 Noroeste 0 -- -- 87
2020-05-08 06:00:00 11.5 8 Noroeste 10 Noroeste 0 -- -- 90
2020-05-08 05:00:00 12.2 5 Noroeste 8 Este 0 -- -- 86
2020-05-08 04:00:00 13.1 0 Calma 9 Sudeste 0 -- -- 84
2020-05-08 03:00:00 14.5 4 Noroeste 13 Noroeste 0 -- -- 80
2020-05-08 02:00:00 15.1 12 Noroeste 15 Oeste 0 -- -- 81
2020-05-08 01:00:00 15.3 7 Noroeste 9 Noroeste 0 -- -- 82
2020-05-08 00:00:00 16.5 3 Norte 14 Noroeste 0 -- -- 78
2020-05-07 23:00:00 17.8 8 Norte 13 Norte 0 -- -- 71
2020-05-07 22:00:00 18.3 6 Oeste 12 Sudeste 0 -- -- 65
2020-05-07 21:00:00 20.5 6 Sudeste 24 Sudeste 0 -- -- 58
2020-05-07 20:00:00 21.5 16 Sudeste 26 Sudeste 0 -- -- 63
2020-05-07 19:00:00 23.8 17 Sudeste 26 Sudeste 0 -- -- 48
2020-05-07 18:00:00 25.2 14 Sudeste 24 Sudeste 0 -- -- 41
2020-05-07 17:00:00 25.8 16 Sudeste 25 Sudeste 0 -- -- 39
2020-05-07 16:00:00 25 16 Sudeste 29 Sudeste 0 -- -- 41
2020-05-07 15:00:00 26.2 17 Sudeste 35 Sudeste 0 -- -- 38
2020-05-07 14:00:00 26.8 13 Sudeste 26 Sudeste 0 -- -- 33
2020-05-07 13:00:00 26.7 12 Sur 22 Sudeste 0 -- -- 44
2020-05-07 12:00:00 25.2 7 Este 17 Sudeste 0 -- -- 47
2020-05-07 11:00:00 23.8 6 Sudeste 11 Sudeste 0 -- -- 52
2020-05-07 10:00:00 21.3 3 Oeste 8 Noroeste 0 -- -- 59
2020-05-07 09:00:00 18.8 0 Calma 10 Noroeste 0 -- -- 69
2020-05-07 08:00:00 15.5 6 Noroeste 11 Noroeste 0 -- -- 82
2020-05-07 07:00:00 14.6 3 Norte 11 Noroeste 0 -- -- 84
2020-05-07 06:00:00 13.7 9 Noroeste 12 Noroeste 0 -- -- 90
2020-05-07 05:00:00 14.2 5 Noroeste 6 Noroeste 0 -- -- 89
2020-05-07 04:00:00 14.9 2 Norte 8 Noroeste 0 -- -- 88
2020-05-07 03:00:00 15.2 6 Noroeste 14 Noroeste 0 -- -- 88
2020-05-07 02:00:00 15.4 9 Noroeste 15 Noroeste 0 -- -- 88
2020-05-07 01:00:00 15.5 5 Noroeste 9 Noroeste 0 -- -- 90
2020-05-07 00:00:00 15.8 2 Norte 3 Norte 0 -- -- 88
2020-05-06 23:00:00 17.6 0 Calma 4 Sudeste 0 -- -- 83
2020-05-06 22:00:00 19.8 4 Sudeste 9 Sudeste 0 -- -- 75
2020-05-06 21:00:00 22.2 5 Sudeste 12 Sudeste 0 -- -- 63
2020-05-06 20:00:00 24.5 8 Sur 18 Sudeste 0 -- -- 55
2020-05-06 19:00:00 25 10 Sudeste 24 Sudeste 0 -- -- 55
2020-05-06 18:00:00 23.7 15 Sudeste 27 Sudeste 0 -- -- 58
2020-05-06 17:00:00 23.7 19 Sudeste 38 Sudeste 0 -- -- 58
2020-05-06 16:00:00 25.6 27 Sudeste 45 Sudeste 0 -- -- 51
2020-05-06 15:00:00 27.6 18 Sudeste 32 Sudeste 0 -- -- 48
2020-05-06 14:00:00 28.7 15 Sudeste 27 Sudeste 0 -- -- 42
2020-05-06 13:00:00 28.4 13 Sudeste 21 Sudeste 0 -- -- 47
2020-05-06 12:00:00 27.9 5 Sudeste 14 Sudeste 0 -- -- 42
2020-05-06 11:00:00 26.3 7 Sur 14 Sudeste 0 -- -- 46
2020-05-06 10:00:00 23.6 3 Sudoeste 10 Noroeste 0 -- -- 50
2020-05-06 09:00:00 19.7 8 Noroeste 12 Noroeste 0 -- -- 63
2020-05-06 08:00:00 16.4 6 Noroeste 12 Noroeste 0 -- -- 79
2020-05-06 07:00:00 15.3 5 Noroeste 12 Noroeste 0 -- -- 83
2020-05-06 06:00:00 15.6 7 Noroeste 13 Noroeste 0 -- -- 83
2020-05-06 05:00:00 15.2 8 Noroeste 13 Noroeste 0 -- -- 85
2020-05-06 04:00:00 15.2 8 Noroeste 11 Noroeste 0 -- -- 86
2020-05-06 03:00:00 16.2 5 Norte 9 Norte 0 -- -- 85
2020-05-06 02:00:00 16.9 6 Noroeste 12 Noroeste 0 -- -- 83
2020-05-06 01:00:00 16.9 6 Noroeste 10 Noroeste 0 -- -- 87
2020-05-06 00:00:00 17.9 9 Noroeste 12 Noroeste 0 -- -- 84
2020-05-05 23:00:00 18.2 4 Norte 9 Noroeste 0 -- -- 85
2020-05-05 22:00:00 20 3 Norte 6 Sur 0 -- -- 78
2020-05-05 21:00:00 22.6 5 Sur 9 Sur 0 -- -- 65
2020-05-05 20:00:00 24.8 6 Sudeste 10 Sur 0 -- -- 57
2020-05-05 19:00:00 25.2 5 Sudeste 13 Sur 0 -- -- 56
2020-05-05 18:00:00 24.7 6 Sudeste 15 Sudeste 0 -- -- 59
2020-05-05 17:00:00 25.2 12 Sudeste 23 Sudeste 0 -- -- 57
2020-05-05 16:00:00 26.7 15 Sudeste 23 Sudeste 0 -- -- 57
2020-05-05 15:00:00 27.7 12 Sudeste 24 Sudeste 0 -- -- 52
2020-05-05 14:00:00 28.3 16 Sudeste 28 Sudeste 0 -- -- 50
2020-05-05 13:00:00 30.7 5 Sudoeste 16 Este 0 -- -- 33
2020-05-05 12:00:00 30.1 6 Este 13 Sudeste 0 -- -- 42
2020-05-05 11:00:00 26.3 5 Nordeste 11 Noroeste 0 -- -- 45
2020-05-05 10:00:00 24 0 Calma 8 Norte 0 -- -- 51
2020-05-05 09:00:00 20 3 Noroeste 11 Noroeste 0 -- -- 66
2020-05-05 08:00:00 15.4 4 Noroeste 9 Norte 0 -- -- 82
2020-05-05 07:00:00 14.9 5 Noroeste 10 Noroeste 0 -- -- 83
2020-05-05 06:00:00 15.3 5 Noroeste 10 Noroeste 0 -- -- 79
2020-05-05 05:00:00 15.1 7 Noroeste 13 Noroeste 0 -- -- 84
2020-05-05 04:00:00 14 3 Norte 5 Oeste 0 -- -- 88
2020-05-05 03:00:00 14.9 0 Calma 9 Noroeste 0 -- -- 88
2020-05-05 02:00:00 15.4 5 Noroeste 15 Noroeste 0 -- -- 88
2020-05-05 01:00:00 16.3 7 Noroeste 10 Noroeste 0 -- -- 88
2020-05-05 00:00:00 17 3 Norte 8 Norte 0 -- -- 85
2020-05-04 23:00:00 17.4 0 Calma 6 Norte 0 -- -- 84
2020-05-04 22:00:00 19.5 0 Calma 6 Sudeste 0 -- -- 75
2020-05-04 21:00:00 20.8 6 Sur 13 Sudeste 0 -- -- 72
2020-05-04 20:00:00 23.5 10 Sudeste 18 Sudeste 0 -- -- 63
2020-05-04 19:00:00 24.9 7 Sur 15 Sudeste 0 -- -- 56
2020-05-04 18:00:00 25.8 14 Sudeste 22 Sudeste 0 -- -- 51
2020-05-04 17:00:00 26.9 12 Sudeste 24 Sudeste 0 -- -- 52
2020-05-04 16:00:00 27.8 14 Sudeste 22 Sudeste 0 -- -- 47
2020-05-04 15:00:00 27.8 14 Sudeste 21 Sudeste 0 -- -- 49
2020-05-04 14:00:00 27.5 9 Sudeste 20 Este 0 -- -- 48
2020-05-04 13:00:00 26.2 7 Sudeste 13 Sudeste 0 -- -- 47
2020-05-04 12:00:00 24.5 4 Sur 9 Sudeste 0 -- -- 50
2020-05-04 11:00:00 22.8 5 Sudoeste 9 Sur 0 -- -- 55
2020-05-04 10:00:00 20.8 4 Sur 6 Sudeste 0 -- -- 65
2020-05-04 09:00:00 18.3 0 Calma 3 Oeste 0 -- -- 69
2020-05-04 08:00:00 14.9 4 Noroeste 8 Noroeste 0 -- -- 80
2020-05-04 07:00:00 13.6 5 Noroeste 10 Noroeste 0 -- -- 83
2020-05-04 06:00:00 13.6 3 Norte 9 Noroeste 0 -- -- 84
2020-05-04 05:00:00 13.2 5 Noroeste 9 Noroeste 0 -- -- 87
2020-05-04 04:00:00 14 5 Noroeste 7 Noroeste 0 -- -- 83
2020-05-04 03:00:00 15.2 4 Noroeste 11 Noroeste 0 -- -- 78
2020-05-04 02:00:00 15.2 2 Norte 5 Noroeste 0 -- -- 80
2020-05-04 01:00:00 15.9 3 Norte 9 Noroeste 0 -- -- 79
2020-05-04 00:00:00 17.5 6 Noroeste 11 Noroeste 0 -- -- 72
2020-05-03 23:00:00 17.7 6 Noroeste 11 Noroeste 0 -- -- 72
2020-05-03 22:00:00 19.9 5 Norte 9 Norte 0 -- -- 64
2020-05-03 21:00:00 23.4 3 Este 13 Sudeste 0 -- -- 53
2020-05-03 20:00:00 25.5 10 Sudeste 19 Sudeste 0 -- -- 42
2020-05-03 19:00:00 26.7 13 Sudeste 22 Este 0 -- -- 42
2020-05-03 18:00:00 27.3 12 Sudeste 27 Sudeste 0 -- -- 42
2020-05-03 17:00:00 27.9 15 Sudeste 25 Sudeste 0 -- -- 43
2020-05-03 16:00:00 27.9 17 Sudeste 26 Sudeste 0 -- -- 43
2020-05-03 15:00:00 27.8 17 Sudeste 33 Sudeste 0 -- -- 44
2020-05-03 14:00:00 28.6 17 Sudeste 30 Este 0 -- -- 43
2020-05-03 13:00:00 28.7 15 Sudeste 24 Sudeste 0 -- -- 38
2020-05-03 12:00:00 28.3 13 Sudeste 25 Sudeste 0 -- -- 37
2020-05-03 11:00:00 27.5 8 Sudeste 14 Este 0 -- -- 38
2020-05-03 10:00:00 25 3 Noroeste 12 Noroeste 0 -- -- 40
2020-05-03 09:00:00 21.5 4 Noroeste 8 Oeste 0 -- -- 53
2020-05-03 08:00:00 17.2 5 Noroeste 13 Noroeste 0 -- -- 64
2020-05-03 07:00:00 16.6 8 Noroeste 13 Noroeste 0 -- -- 60
2020-05-03 06:00:00 17.6 6 Noroeste 14 Noroeste 0 -- -- 56
2020-05-03 05:00:00 17 6 Noroeste 16 Noroeste 0 -- -- 63
2020-05-03 04:00:00 15.9 5 Noroeste 9 Noroeste 0 -- -- 68
2020-05-03 03:00:00 15.3 3 Norte 10 Norte 0 -- -- 73
2020-05-03 02:00:00 16.5 3 Norte 9 Sudoeste 0 -- -- 71
2020-05-03 01:00:00 16.6 2 Sur 6 Sudeste 0 -- -- 76
2020-05-03 00:00:00 19 3 Oeste 16 Norte 0 -- -- 63
2020-05-02 23:00:00 20.3 8 Norte 10 Norte 0 -- -- 64
2020-05-02 22:00:00 21.8 3 Norte 8 Sur 0 -- -- 62
2020-05-02 21:00:00 25 4 Sudeste 14 Sudeste 0 -- -- 51
2020-05-02 20:00:00 27.9 10 Este 21 Este 0 -- -- 42
2020-05-02 19:00:00 30.6 6 Sudeste 30 Oeste 0 -- -- 37
2020-05-02 18:00:00 33.8 13 Oeste 30 Oeste 0 -- -- 25
2020-05-02 17:00:00 33.6 20 Oeste 36 Oeste 0 -- -- 23
2020-05-02 16:00:00 32.6 18 Sudoeste 29 Sudoeste 0 -- -- 32
2020-05-02 15:00:00 32.6 15 Sudoeste 29 Sudoeste 0 -- -- 27
2020-05-02 14:00:00 31.6 8 Sudoeste 19 Sudeste 0 -- -- 30
2020-05-02 13:00:00 29.5 5 Sudeste 21 Sudeste 0 -- -- 39
2020-05-02 12:00:00 27.4 5 Este 13 Nordeste 0 -- -- 45
2020-05-02 11:00:00 24.6 5 Nordeste 19 Noroeste 0 -- -- 50
2020-05-02 10:00:00 23.4 7 Noroeste 22 Oeste 0 -- -- 52
2020-05-02 09:00:00 20.2 14 Oeste 26 Oeste 0 -- -- 60
2020-05-02 08:00:00 19.2 17 Noroeste 31 Noroeste 0 -- -- 62
2020-05-02 07:00:00 19.3 18 Oeste 34 Noroeste 0 -- -- 62
2020-05-02 06:00:00 19.5 9 Noroeste 30 Oeste 0 -- -- 62
2020-05-02 05:00:00 20.1 14 Oeste 26 Oeste 0 -- -- 60
2020-05-02 04:00:00 20.3 12 Oeste 28 Oeste 0 -- -- 60
2020-05-02 03:00:00 21.2 11 Noroeste 28 Noroeste 0 -- -- 56
2020-05-02 02:00:00 20.3 12 Noroeste 23 Noroeste 0 -- -- 59
2020-05-02 01:00:00 21.3 14 Noroeste 29 Oeste 0 -- -- 57
2020-05-02 00:00:00 22.3 16 Oeste 25 Oeste 0 -- -- 53
2020-05-01 23:00:00 22.7 11 Sudoeste 22 Oeste 0 -- -- 49
2020-05-01 22:00:00 22.6 10 Oeste 20 Oeste 0 -- -- 50
2020-05-01 21:00:00 24.9 16 Oeste 34 Oeste 0 -- -- 43
2020-05-01 20:00:00 27.3 19 Oeste 47 Oeste 0 -- -- 38
2020-05-01 19:00:00 28 28 Oeste 50 Oeste 0 -- -- 37
2020-05-01 18:00:00 28.6 27 Oeste 52 Oeste 0 -- -- 36
2020-05-01 17:00:00 29.4 28 Oeste 49 Oeste 0 -- -- 34
2020-05-01 16:00:00 29.7 24 Oeste 66 Oeste 0 -- -- 34
2020-05-01 15:00:00 29.6 22 Oeste 51 Oeste 0 -- -- 33
2020-05-01 14:00:00 27.9 24 Oeste 43 Oeste 0 -- -- 39
2020-05-01 13:00:00 26 27 Oeste 45 Oeste 0 -- -- 41
2020-05-01 12:00:00 24.6 27 Oeste 44 Oeste 0 -- -- 44
2020-05-01 11:00:00 22.8 23 Oeste 44 Oeste 0 -- -- 47
2020-05-01 10:00:00 20.7 24 Oeste 40 Oeste 0 -- -- 52
2020-05-01 09:00:00 18.6 21 Oeste 37 Oeste 0 -- -- 57
2020-05-01 08:00:00 17.3 16 Oeste 31 Oeste 0 -- -- 60
2020-05-01 07:00:00 16.3 15 Oeste 29 Noroeste 0 -- -- 63
2020-05-01 06:00:00 16.9 19 Oeste 30 Oeste 0 -- -- 61
2020-05-01 05:00:00 17 14 Oeste 30 Noroeste 0 -- -- 60
2020-05-01 04:00:00 17.2 13 Noroeste 32 Oeste 0 -- -- 59
2020-05-01 03:00:00 17.8 15 Oeste 39 Oeste 0 -- -- 57
2020-05-01 02:00:00 17.1 7 Oeste 18 Noroeste 0 -- -- 59
2020-05-01 01:00:00 15 7 Oeste 15 Oeste 0 -- -- 67
2020-05-01 00:00:00 15.1 4 Norte 7 Noroeste 0 -- -- 70
2020-04-30 23:00:00 16.8 4 Noroeste 14 Oeste 0 -- -- 61
2020-04-30 22:00:00 19.7 9 Oeste 26 Oeste 0 -- -- 49
2020-04-30 21:00:00 21.7 14 Oeste 33 Oeste 0 -- -- 42
2020-04-30 20:00:00 24 21 Oeste 35 Oeste 0 -- -- 37
2020-04-30 19:00:00 25.3 20 Oeste 47 Oeste 0 -- -- 34
2020-04-30 18:00:00 25.8 19 Oeste 41 Oeste 0 -- -- 34
2020-04-30 17:00:00 25.2 25 Oeste 43 Oeste 0 -- -- 35
2020-04-30 16:00:00 25.8 19 Oeste 51 Oeste 0 -- -- 36
2020-04-30 15:00:00 24.2 26 Oeste 50 Oeste 0 -- -- 38
2020-04-30 14:00:00 23.5 31 Oeste 58 Oeste 0 -- -- 43
2020-04-30 13:00:00 23.5 27 Oeste 50 Oeste 0 -- -- 45
2020-04-30 12:00:00 21.9 24 Oeste 45 Oeste 0 -- -- 50
2020-04-30 11:00:00 21 21 Oeste 41 Sudoeste 0 -- -- 52
2020-04-30 10:00:00 16.8 5 Oeste 20 Oeste 0 -- -- 63
2020-04-30 09:00:00 16.6 6 Oeste 25 Oeste 0 -- -- 63
2020-04-30 08:00:00 16.9 13 Oeste 35 Oeste 0 -- -- 58
2020-04-30 07:00:00 17.4 18 Noroeste 43 Noroeste 0 -- -- 58
2020-04-30 06:00:00 17.9 10 Oeste 27 Oeste 0 -- -- 55
2020-04-30 05:00:00 18 5 Sudoeste 26 Oeste 0 -- -- 54
2020-04-30 04:00:00 17.9 10 Oeste 21 Oeste 0 -- -- 52
2020-04-30 03:00:00 16.6 2 Nordeste 15 Oeste 0 -- -- 58
2020-04-30 02:00:00 18 10 Noroeste 36 Noroeste 0 -- -- 51
2020-04-30 01:00:00 19.3 22 Oeste 36 Oeste 0 -- -- 46
2020-04-30 00:00:00 20.2 16 Oeste 33 Oeste 0 -- -- 42
2020-04-29 23:00:00 19.2 15 Oeste 22 Oeste 0 -- -- 46
2020-04-29 22:00:00 18.9 6 Oeste 17 Oeste 0 -- -- 51
2020-04-29 21:00:00 21.5 10 Oeste 29 Oeste 0 -- -- 39
2020-04-29 20:00:00 23.5 15 Oeste 36 Oeste 0 -- -- 33
2020-04-29 19:00:00 25.4 24 Oeste 39 Oeste 0 -- -- 29
2020-04-29 18:00:00 25.9 22 Oeste 42 Oeste 0 -- -- 32
2020-04-29 17:00:00 25.8 23 Oeste 40 Oeste 0 -- -- 33
2020-04-29 16:00:00 25.7 23 Oeste 41 Oeste 0 -- -- 32
2020-04-29 15:00:00 25.4 19 Oeste 36 Oeste 0 -- -- 32
2020-04-29 14:00:00 24.2 17 Sudoeste 30 Oeste 0 -- -- 33
2020-04-29 13:00:00 23.4 17 Oeste 34 Sudoeste 0 -- -- 35
2020-04-29 12:00:00 21.8 20 Oeste 35 Oeste 0 -- -- 37
2020-04-29 11:00:00 20.2 17 Oeste 26 Oeste 0 -- -- 42
2020-04-29 10:00:00 18.3 15 Oeste 25 Oeste 0 -- -- 47
2020-04-29 09:00:00 15.3 10 Oeste 21 Oeste 0 -- -- 58
2020-04-29 08:00:00 11 3 Noroeste 10 Noroeste 0 -- -- 74
2020-04-29 07:00:00 8.5 7 Noroeste 12 Noroeste 0 -- -- 86
2020-04-29 06:00:00 9.6 0 Calma 11 Nordeste 0 -- -- 82
2020-04-29 05:00:00 11.5 6 Nordeste 17 Oeste 0 -- -- 69
2020-04-29 04:00:00 13.3 9 Noroeste 27 Oeste 0 -- -- 60
2020-04-29 03:00:00 14.5 13 Oeste 24 Noroeste 0 -- -- 55
2020-04-29 02:00:00 14 14 Noroeste 25 Oeste 0 -- -- 56
2020-04-29 01:00:00 15.4 14 Oeste 27 Oeste 0 -- -- 50
2020-04-29 00:00:00 14.4 15 Oeste 22 Noroeste 0 -- -- 56
2020-04-28 23:00:00 14.3 8 Noroeste 19 Oeste 0 -- -- 62
2020-04-28 22:00:00 17.3 10 Oeste 17 Oeste 0 -- -- 49
2020-04-28 21:00:00 19.3 9 Oeste 30 Oeste 0 -- -- 43
2020-04-28 20:00:00 21.9 17 Oeste 36 Oeste 0 -- -- 35
2020-04-28 19:00:00 23.3 15 Oeste 39 Oeste 0 -- -- 33
2020-04-28 18:00:00 23.6 20 Oeste 38 Oeste 0 -- -- 33
2020-04-28 17:00:00 23.9 23 Oeste 46 Sudoeste 0 -- -- 31
2020-04-28 16:00:00 23.4 23 Oeste 39 Oeste 0 -- -- 34
2020-04-28 15:00:00 23.3 19 Oeste 36 Oeste 0 -- -- 34
2020-04-28 14:00:00 23.6 19 Oeste 35 Oeste 0 -- -- 35
2020-04-28 13:00:00 22.1 18 Noroeste 43 Oeste 0 -- -- 37
2020-04-28 12:00:00 21.3 22 Oeste 36 Noroeste 0 -- -- 42
2020-04-28 11:00:00 19.8 15 Oeste 32 Noroeste 0 -- -- 46
2020-04-28 10:00:00 17.9 18 Oeste 41 Oeste 0 -- -- 50
2020-04-28 09:00:00 15.7 10 Oeste 17 Oeste 0 -- -- 61
2020-04-28 08:00:00 13 8 Oeste 14 Oeste 0 -- -- 70
2020-04-28 07:00:00 11 3 Sudoeste 10 Noroeste 0 -- -- 78
2020-04-28 06:00:00 10.9 4 Norte 14 Oeste 0 -- -- 81
2020-04-28 05:00:00 10.6 0 Calma 12 Norte 0 -- -- 84
2020-04-28 04:00:00 12.7 2 Oeste 19 Oeste 0 -- -- 75
2020-04-28 03:00:00 13.3 11 Oeste 18 Oeste 0 -- -- 73
2020-04-28 02:00:00 13.6 6 Noroeste 16 Oeste 0 -- -- 72
2020-04-28 01:00:00 14 10 Noroeste 18 Oeste 0 -- -- 70
2020-04-28 00:00:00 14.1 13 Noroeste 24 Oeste 0 -- -- 70